createdAt,value
2019-03-01T00:01:22.456Z,95452.11
2019-03-01T00:03:58.836Z,95457.53
2019-03-01T00:07:06.109Z,95458.38
2019-03-01T00:10:27.252Z,95457.91
2019-03-01T00:13:24.163Z,95462.53
2019-03-01T00:16:20.085Z,95458.04
2019-03-01T00:19:27.400Z,95461.10
2019-03-01T00:22:20.644Z,95457.09
2019-03-01T00:25:27.909Z,95463.33
2019-03-01T00:28:24.016Z,95463.91
2019-03-01T00:31:17.113Z,95462.74
2019-03-01T00:34:24.423Z,95458.98
2019-03-01T00:37:31.780Z,95462.02
2019-03-01T00:40:22.305Z,95467.22
2019-03-01T00:43:29.623Z,95461.58
2019-03-01T00:45:58.826Z,95455.66
2019-03-01T00:48:28.079Z,95451.77
2019-03-01T00:50:57.610Z,95458.59
2019-03-01T00:53:26.885Z,95450.46
2019-03-01T00:55:56.089Z,95442.23
2019-03-01T00:58:25.317Z,95442.81
2019-03-01T01:00:54.576Z,95440.37
2019-03-01T01:03:23.779Z,95431.28
2019-03-01T01:08:27.704Z,95435.38
2019-03-01T01:10:56.971Z,95435.05
2019-03-01T01:13:26.466Z,95428.08
2019-03-01T01:15:55.718Z,95444.02
2019-03-01T01:18:24.971Z,95435.89
2019-03-01T01:20:54.224Z,95426.31
2019-03-01T01:23:23.426Z,95438.48
2019-03-01T01:25:52.682Z,95432.59
2019-03-01T01:28:21.882Z,95417.25
2019-03-01T01:30:51.138Z,95426.81
2019-03-01T01:33:20.632Z,95415.23
2019-03-01T01:35:50.234Z,95400.52
2019-03-01T01:38:19.442Z,95396.04
2019-03-01T01:40:48.690Z,95394.14
2019-03-01T01:43:17.914Z,95403.22
2019-03-01T01:45:47.200Z,95401.22
2019-03-01T01:48:16.388Z,95390.48
2019-03-01T01:50:45.580Z,95395.91
2019-03-01T01:53:15.166Z,95379.06
2019-03-01T01:55:44.638Z,95383.08
2019-03-01T01:58:13.902Z,95385.08
2019-03-01T02:00:43.097Z,95371.30
2019-03-01T02:03:12.633Z,95362.20
2019-03-01T02:05:41.829Z,95368.11
2019-03-01T02:08:11.111Z,95376.70
2019-03-01T02:10:40.398Z,95365.96
2019-03-01T02:13:09.923Z,95362.92
2019-03-01T02:15:39.107Z,95353.13
2019-03-01T02:18:08.425Z,95360.07
2019-03-01T02:20:37.619Z,95345.00
2019-03-01T02:23:06.836Z,95349.70
2019-03-01T02:25:36.041Z,95340.18
2019-03-01T02:28:05.550Z,95330.75
2019-03-01T02:30:35.027Z,95331.34
2019-03-01T02:33:04.215Z,95338.05
2019-03-01T02:35:33.865Z,95323.09
2019-03-01T02:38:03.066Z,95317.09
2019-03-01T02:40:35.898Z,95319.09
2019-03-01T02:43:05.118Z,95316.61
2019-03-01T02:45:34.372Z,95319.16
2019-03-01T02:48:03.571Z,95308.59
2019-03-01T02:50:32.819Z,95308.35
2019-03-01T02:53:02.282Z,95294.69
2019-03-01T02:56:10.924Z,95300.69
2019-03-01T02:58:40.118Z,95299.52
2019-03-01T03:01:09.375Z,95284.44
2019-03-01T03:03:38.582Z,95286.34
2019-03-01T03:06:26.774Z,95274.53
2019-03-01T03:08:55.973Z,95281.25
2019-03-01T03:11:25.265Z,95280.77
2019-03-01T03:13:54.511Z,95271.94
2019-03-01T03:16:23.734Z,95270.88
2019-03-01T03:18:53.001Z,95263.22
2019-03-01T03:21:22.272Z,95267.47
2019-03-01T03:23:51.469Z,95271.36
2019-03-01T03:26:20.724Z,95268.53
2019-03-01T03:28:49.938Z,95262.66
2019-03-01T03:33:53.478Z,95263.70
2019-03-01T03:36:22.733Z,95259.08
2019-03-01T03:38:52.213Z,95252.13
2019-03-01T03:41:21.481Z,95251.92
2019-03-01T03:43:58.002Z,95258.84
2019-03-01T03:46:27.259Z,95252.96
2019-03-01T03:48:56.449Z,95253.22
2019-03-01T03:51:25.735Z,95270.52
2019-03-01T03:53:54.931Z,95264.14
2019-03-01T03:56:24.225Z,95258.59
2019-03-01T03:58:53.504Z,95260.83
2019-03-01T04:01:22.721Z,95259.63
2019-03-01T04:03:51.979Z,95252.33
2019-03-01T04:06:21.172Z,95246.11
2019-03-01T04:08:50.411Z,95243.39
2019-03-01T04:11:19.631Z,95231.25
2019-03-01T04:13:48.864Z,95226.33
2019-03-01T04:16:18.066Z,95232.06
2019-03-01T04:18:47.380Z,95229.94
2019-03-01T04:21:16.938Z,95228.42
2019-03-01T04:23:46.190Z,95227.59
2019-03-01T04:26:15.390Z,95216.91
2019-03-01T04:28:44.640Z,95213.95
2019-03-01T04:31:13.925Z,95214.91
2019-03-01T04:33:43.542Z,95214.78
2019-03-01T04:36:12.738Z,95212.41
2019-03-01T04:38:42.348Z,95219.47
2019-03-01T04:41:11.550Z,95211.70
2019-03-01T04:43:40.800Z,95221.09
2019-03-01T04:46:10.004Z,95225.23
2019-03-01T04:48:39.605Z,95213.83
2019-03-01T04:53:58.672Z,95212.66
2019-03-01T04:56:28.236Z,95207.84
2019-03-01T04:58:57.492Z,95206.30
2019-03-01T05:01:26.699Z,95197.39
2019-03-01T05:03:55.974Z,95209.03
2019-03-01T05:06:25.167Z,95205.02
2019-03-01T05:08:54.423Z,95199.27
2019-03-01T05:11:23.615Z,95199.86
2019-03-01T05:13:52.875Z,95201.38
2019-03-01T05:16:22.079Z,95194.09
2019-03-01T05:18:51.389Z,95194.09
2019-03-01T05:21:20.573Z,95185.39
2019-03-01T05:23:49.855Z,95190.34
2019-03-01T05:26:19.322Z,95194.33
2019-03-01T05:28:48.789Z,95185.50
2019-03-01T05:31:18.034Z,95190.34
2019-03-01T05:33:47.227Z,95180.78
2019-03-01T05:36:16.485Z,95179.73
2019-03-01T05:38:45.688Z,95176.44
2019-03-01T05:41:15.199Z,95185.87
2019-03-01T05:43:44.398Z,95187.84
2019-03-01T05:46:13.655Z,95186.92
2019-03-01T05:48:42.843Z,95195.60
2019-03-01T05:51:12.093Z,95225.33
2019-03-01T05:53:41.291Z,95194.67
2019-03-01T05:56:10.552Z,95165.52
2019-03-01T05:59:17.802Z,95202.48
2019-03-01T06:02:25.400Z,95187.55
2019-03-01T06:05:18.536Z,95201.63
2019-03-01T06:08:25.880Z,95192.59
2019-03-01T06:11:33.431Z,95192.20
2019-03-01T06:14:40.864Z,95184.34
2019-03-01T06:17:48.425Z,95192.92
2019-03-01T06:20:41.065Z,95189.52
2019-03-01T06:23:48.896Z,95183.54
2019-03-01T06:26:56.105Z,95186.13
2019-03-01T06:30:00.988Z,95179.13
2019-03-01T06:33:08.369Z,95175.58
2019-03-01T06:36:15.660Z,95177.13
2019-03-01T06:39:41.898Z,95184.30
2019-03-01T06:42:33.548Z,95171.95
2019-03-01T06:45:40.858Z,95175.20
2019-03-01T06:51:07.506Z,95168.03
2019-03-01T06:53:36.753Z,95164.19
2019-03-01T06:56:06.961Z,95172.08
2019-03-01T06:58:48.625Z,95174.53
2019-03-01T07:01:36.830Z,95165.86
2019-03-01T07:04:25.029Z,95177.95
2019-03-01T07:06:54.233Z,95172.91
2019-03-01T07:09:23.513Z,95158.90
2019-03-01T07:11:52.733Z,95173.12
2019-03-01T07:14:21.912Z,95167.95
2019-03-01T07:16:51.193Z,95170.91
2019-03-01T07:19:33.180Z,95164.23
2019-03-01T07:22:02.363Z,95172.33
2019-03-01T07:24:31.758Z,95179.74
2019-03-01T07:27:01.297Z,95173.52
2019-03-01T07:29:30.513Z,95172.33
2019-03-01T07:31:59.791Z,95177.25
2019-03-01T07:34:28.974Z,95169.61
2019-03-01T07:36:58.363Z,95179.16
2019-03-01T07:39:27.561Z,95199.81
2019-03-01T07:41:56.924Z,95174.63
2019-03-01T07:44:26.124Z,95160.86
2019-03-01T07:46:55.372Z,95165.45
2019-03-01T07:49:24.606Z,95164.48
2019-03-01T07:51:54.210Z,95173.30
2019-03-01T07:54:23.472Z,95168.52
2019-03-01T07:56:52.757Z,95178.48
2019-03-01T07:59:23.942Z,95176.76
2019-03-01T08:01:52.956Z,95178.00
2019-03-01T08:04:23.770Z,95170.38
2019-03-01T08:06:53.610Z,95172.12
2019-03-01T08:09:22.804Z,95167.33
2019-03-01T08:11:52.096Z,95173.95
2019-03-01T08:14:24.576Z,95171.86
2019-03-01T08:16:52.698Z,95167.79
2019-03-01T08:19:23.625Z,95177.75
2019-03-01T08:21:54.278Z,95179.62
2019-03-01T08:24:23.520Z,95168.58
2019-03-01T08:26:52.717Z,95166.57
2019-03-01T08:29:21.974Z,95167.91
2019-03-01T08:31:52.784Z,95175.42
2019-03-01T08:34:22.235Z,95170.95
2019-03-01T08:36:51.795Z,95178.13
2019-03-01T08:39:21.037Z,95177.98
2019-03-01T08:41:50.242Z,95180.77
2019-03-01T08:44:23.129Z,95180.11
2019-03-01T08:46:50.446Z,95171.85
2019-03-01T08:49:19.730Z,95178.56
2019-03-01T08:51:49.283Z,95185.50
2019-03-01T08:54:18.533Z,95180.83
2019-03-01T08:56:50.230Z,95181.67
2019-03-01T08:59:18.770Z,95179.80
2019-03-01T09:01:47.933Z,95168.78
2019-03-01T09:04:19.376Z,95168.64
2019-03-01T09:09:57.254Z,95161.98
2019-03-01T09:12:27.649Z,95163.87
2019-03-01T09:14:57.110Z,95163.27
2019-03-01T09:17:26.397Z,95158.38
2019-03-01T09:19:57.151Z,95165.99
2019-03-01T09:22:28.082Z,95167.33
2019-03-01T09:24:57.888Z,95151.08
2019-03-01T09:27:30.283Z,95153.77
2019-03-01T09:29:59.373Z,95156.05
2019-03-01T09:32:30.442Z,95153.65
2019-03-01T09:35:19.261Z,95154.81
2019-03-01T09:37:48.451Z,95152.23
2019-03-01T09:40:17.798Z,95153.98
2019-03-01T09:42:47.430Z,95148.02
2019-03-01T09:45:19.374Z,95146.34
2019-03-01T09:47:48.899Z,95150.36
2019-03-01T09:50:18.149Z,95137.50
2019-03-01T09:52:47.347Z,95148.92
2019-03-01T09:55:16.618Z,95145.84
2019-03-01T09:57:45.812Z,95138.67
2019-03-01T10:00:15.649Z,95141.84
2019-03-01T10:02:44.901Z,95133.59
2019-03-01T10:05:14.480Z,95132.30
2019-03-01T10:07:43.748Z,95127.80
2019-03-01T10:10:14.167Z,95125.22
2019-03-01T10:12:43.437Z,95124.39
2019-03-01T10:15:52.746Z,95133.72
2019-03-01T10:18:21.995Z,95131.77
2019-03-01T10:20:51.266Z,95129.17
2019-03-01T10:23:20.469Z,95125.64
2019-03-01T10:25:49.658Z,95131.09
2019-03-01T10:28:18.916Z,95126.63
2019-03-01T10:30:48.107Z,95131.09
2019-03-01T10:33:17.394Z,95142.81
2019-03-01T10:35:46.636Z,95135.05
2019-03-01T10:38:15.897Z,95136.35
2019-03-01T10:40:58.753Z,95140.27
2019-03-01T10:43:16.124Z,95137.81
2019-03-01T10:45:45.701Z,95139.22
2019-03-01T10:48:14.975Z,95129.43
2019-03-01T10:50:44.665Z,95138.59
2019-03-01T10:53:13.941Z,95126.97
2019-03-01T10:55:43.232Z,95134.39
2019-03-01T10:58:12.485Z,95132.64
2019-03-01T11:00:41.713Z,95123.47
2019-03-01T11:03:10.986Z,95135.09
2019-03-01T11:05:40.164Z,95125.67
2019-03-01T11:08:09.411Z,95134.59
2019-03-01T11:10:38.686Z,95136.27
2019-03-01T11:13:47.338Z,95122.88
2019-03-01T11:16:16.601Z,95122.64
2019-03-01T11:18:45.919Z,95123.77
2019-03-01T11:21:15.371Z,95128.27
2019-03-01T11:23:44.669Z,95131.77
2019-03-01T11:26:13.866Z,95119.67
2019-03-01T11:28:43.465Z,95125.92
2019-03-01T11:31:12.667Z,95117.88
2019-03-01T11:33:41.933Z,95124.84
2019-03-01T11:39:19.817Z,95131.38
2019-03-01T11:41:49.016Z,95121.50
2019-03-01T11:44:19.144Z,95119.96
2019-03-01T11:46:48.377Z,95121.88
2019-03-01T11:49:17.641Z,95125.63
2019-03-01T11:51:47.212Z,95132.09
2019-03-01T11:54:16.487Z,95118.01
2019-03-01T11:56:45.697Z,95134.22
2019-03-01T11:59:14.968Z,95132.72
2019-03-01T12:01:44.223Z,95133.89
2019-03-01T12:06:48.501Z,95138.84
2019-03-01T12:09:18.054Z,95136.44
2019-03-01T12:11:47.316Z,95138.43
2019-03-01T12:14:16.613Z,95126.84
2019-03-01T12:16:45.877Z,95136.47
2019-03-01T12:19:15.186Z,95142.42
2019-03-01T12:21:44.376Z,95132.80
2019-03-01T12:24:13.625Z,95124.64
2019-03-01T12:26:42.818Z,95133.56
2019-03-01T12:29:12.077Z,95143.14
2019-03-01T12:31:41.274Z,95124.84
2019-03-01T12:34:10.585Z,95146.73
2019-03-01T12:36:39.802Z,95139.71
2019-03-01T12:39:09.997Z,95142.73
2019-03-01T12:41:40.782Z,95135.12
2019-03-01T12:44:10.022Z,95137.17
2019-03-01T12:46:39.691Z,95141.44
2019-03-01T12:49:08.917Z,95142.48
2019-03-01T12:51:38.179Z,95143.73
2019-03-01T12:54:07.377Z,95136.44
2019-03-01T12:56:36.659Z,95138.93
2019-03-01T12:59:05.874Z,95146.02
2019-03-01T13:01:35.144Z,95135.22
2019-03-01T13:04:04.708Z,95140.55
2019-03-01T13:06:35.459Z,95124.77
2019-03-01T13:09:26.444Z,95141.14
2019-03-01T13:11:57.014Z,95138.69
2019-03-01T13:14:26.177Z,95133.47
2019-03-01T13:16:58.610Z,95144.72
2019-03-01T13:19:26.938Z,95141.31
2019-03-01T13:21:57.404Z,95135.81
2019-03-01T13:24:26.598Z,95141.44
2019-03-01T13:26:56.353Z,95133.77
2019-03-01T13:29:25.569Z,95138.22
2019-03-01T13:31:54.820Z,95140.02
2019-03-01T13:34:24.016Z,95134.17
2019-03-01T13:36:53.277Z,95136.67
2019-03-01T13:39:22.466Z,95128.45
2019-03-01T13:41:51.723Z,95138.00
2019-03-01T13:44:20.943Z,95136.83
2019-03-01T13:46:50.210Z,95127.55
2019-03-01T13:49:19.400Z,95149.22
2019-03-01T13:51:49.368Z,95136.88
2019-03-01T13:54:21.343Z,95135.83
2019-03-01T13:56:50.892Z,95128.75
2019-03-01T13:59:21.477Z,95142.03
2019-03-01T14:01:50.744Z,95141.41
2019-03-01T14:04:20.345Z,95141.97
2019-03-01T14:06:49.608Z,95143.88
2019-03-01T14:09:18.798Z,95149.42
2019-03-01T14:11:48.452Z,95152.09
2019-03-01T14:14:17.811Z,95152.73
2019-03-01T14:16:47.078Z,95149.31
2019-03-01T14:19:16.655Z,95154.81
2019-03-01T14:21:45.903Z,95151.52
2019-03-01T14:24:15.112Z,95155.44
2019-03-01T14:26:45.702Z,95145.69
2019-03-01T14:29:16.002Z,95153.31
2019-03-01T14:34:48.602Z,95155.11
2019-03-01T14:37:18.663Z,95153.59
2019-03-01T14:39:48.139Z,95163.48
2019-03-01T14:42:17.585Z,95155.23
2019-03-01T14:44:46.768Z,95164.27
2019-03-01T14:47:16.011Z,95162.65
2019-03-01T14:52:58.313Z,95150.55
2019-03-01T14:55:47.101Z,95154.52
2019-03-01T14:58:22.250Z,95142.81
2019-03-01T15:00:55.560Z,95155.06
2019-03-01T15:03:43.901Z,95156.73
2019-03-01T15:06:55.117Z,95155.20
2019-03-01T15:09:23.725Z,95163.19
2019-03-01T15:11:53.051Z,95155.41
2019-03-01T15:14:22.257Z,95165.86
2019-03-01T15:16:51.531Z,95161.41
2019-03-01T15:19:20.780Z,95166.27
2019-03-01T15:21:50.037Z,95160.98
2019-03-01T15:24:19.229Z,95167.69
2019-03-01T15:26:48.614Z,95165.02
2019-03-01T15:29:18.179Z,95164.15
2019-03-01T15:31:47.484Z,95163.09
2019-03-01T15:34:16.730Z,95162.69
2019-03-01T15:36:46.159Z,95165.69
2019-03-01T15:39:16.797Z,95175.11
2019-03-01T15:41:46.671Z,95176.03
2019-03-01T15:44:15.911Z,95182.73
2019-03-01T15:46:46.314Z,95182.48
2019-03-01T15:49:16.293Z,95184.98
2019-03-01T15:51:45.548Z,95179.11
2019-03-01T15:54:14.810Z,95187.08
2019-03-01T15:56:44.036Z,95193.11
2019-03-01T15:59:13.274Z,95199.52
2019-03-01T16:01:43.623Z,95189.17
2019-03-01T16:04:13.722Z,95203.72
2019-03-01T16:06:42.902Z,95197.42
2019-03-01T16:09:58.310Z,95207.02
2019-03-01T16:12:28.960Z,95209.61
2019-03-01T16:15:00.500Z,95208.31
2019-03-01T16:17:30.268Z,95221.00
2019-03-01T16:19:59.583Z,95222.84
2019-03-01T16:22:29.153Z,95222.01
2019-03-01T16:24:58.343Z,95225.65
2019-03-01T16:27:27.543Z,95229.31
2019-03-01T16:29:56.818Z,95224.02
2019-03-01T16:32:25.999Z,95234.48
2019-03-01T16:34:55.240Z,95230.59
2019-03-01T16:37:26.065Z,95232.05
2019-03-01T16:39:56.237Z,95226.45
2019-03-01T16:42:26.793Z,95231.11
2019-03-01T16:44:56.040Z,95234.58
2019-03-01T16:47:25.585Z,95233.24
2019-03-01T16:49:54.814Z,95233.94
2019-03-01T16:52:26.470Z,95244.13
2019-03-01T16:54:55.234Z,95245.23
2019-03-01T16:57:24.654Z,95246.52
2019-03-01T16:59:53.948Z,95256.86
2019-03-01T17:02:23.165Z,95257.34
2019-03-01T17:04:52.407Z,95260.33
2019-03-01T17:07:25.058Z,95261.63
2019-03-01T17:09:54.889Z,95268.14
2019-03-01T17:12:23.542Z,95270.66
2019-03-01T17:14:52.799Z,95267.50
2019-03-01T17:17:21.996Z,95274.67
2019-03-01T17:19:51.306Z,95276.56
2019-03-01T17:22:23.213Z,95277.86
2019-03-01T17:24:51.943Z,95279.03
2019-03-01T17:27:21.216Z,95280.09
2019-03-01T17:29:50.613Z,95289.02
2019-03-01T17:32:19.822Z,95289.37
2019-03-01T17:34:49.074Z,95294.31
2019-03-01T17:37:18.266Z,95295.94
2019-03-01T17:39:47.524Z,95294.37
2019-03-01T17:42:17.442Z,95307.22
2019-03-01T17:44:48.123Z,95308.48
2019-03-01T17:47:17.317Z,95314.97
2019-03-01T17:49:46.561Z,95323.50
2019-03-01T17:52:15.755Z,95322.16
2019-03-01T17:54:45.265Z,95311.02
2019-03-01T17:57:14.516Z,95321.89
2019-03-01T17:59:44.616Z,95320.77
2019-03-01T18:02:15.076Z,95319.91
2019-03-01T18:04:45.585Z,95328.13
2019-03-01T18:07:33.922Z,95319.91
2019-03-01T18:10:03.140Z,95325.71
2019-03-01T18:12:32.815Z,95323.84
2019-03-01T18:15:02.013Z,95330.13
2019-03-01T18:17:33.014Z,95323.50
2019-03-01T18:20:02.788Z,95325.31
2019-03-01T18:22:33.244Z,95326.95
2019-03-01T18:25:02.438Z,95335.39
2019-03-01T18:27:31.690Z,95333.45
2019-03-01T18:30:00.887Z,95333.05
2019-03-01T18:32:30.138Z,95342.90
2019-03-01T18:34:59.353Z,95342.90
2019-03-01T18:37:28.692Z,95343.05
2019-03-01T18:39:57.886Z,95345.51
2019-03-01T18:42:27.145Z,95354.17
2019-03-01T18:44:56.477Z,95363.13
2019-03-01T18:47:27.841Z,95359.86
2019-03-01T18:49:56.762Z,95364.38
2019-03-01T18:52:26.123Z,95361.80
2019-03-01T18:54:55.303Z,95372.47
2019-03-01T18:57:25.004Z,95367.42
2019-03-01T18:59:56.410Z,95363.39
2019-03-01T19:02:27.651Z,95355.53
2019-03-01T19:04:56.422Z,95361.53
2019-03-01T19:07:27.491Z,95362.59
2019-03-01T19:09:56.623Z,95375.73
2019-03-01T19:12:25.816Z,95370.05
2019-03-01T19:14:55.056Z,95377.39
2019-03-01T19:17:24.374Z,95378.80
2019-03-01T19:19:53.671Z,95381.52
2019-03-01T19:22:24.828Z,95387.61
2019-03-01T19:24:54.643Z,95384.83
2019-03-01T19:27:23.827Z,95397.02
2019-03-01T19:29:53.140Z,95395.16
2019-03-01T19:32:23.584Z,95395.20
2019-03-01T19:34:53.638Z,95402.95
2019-03-01T19:37:24.349Z,95409.67
2019-03-01T19:39:53.593Z,95406.48
2019-03-01T19:42:22.783Z,95416.12
2019-03-01T19:44:52.027Z,95417.99
2019-03-01T19:47:23.621Z,95418.25
2019-03-01T19:49:52.280Z,95416.44
2019-03-01T19:52:21.591Z,95420.61
2019-03-01T19:54:51.470Z,95425.59
2019-03-01T19:57:21.078Z,95427.33
2019-03-01T19:59:50.693Z,95429.34
2019-03-01T20:02:19.874Z,95434.06
2019-03-01T20:04:49.114Z,95431.47
2019-03-01T20:07:19.792Z,95439.41
2019-03-01T20:09:49.262Z,95435.00
2019-03-01T20:12:18.511Z,95433.30
2019-03-01T20:14:47.829Z,95436.71
2019-03-01T20:17:17.013Z,95437.81
2019-03-01T20:19:46.297Z,95441.80
2019-03-01T20:22:18.527Z,95441.88
2019-03-01T20:24:46.462Z,95433.10
2019-03-01T20:27:15.646Z,95448.75
2019-03-01T20:29:44.879Z,95436.52
2019-03-01T20:32:15.728Z,95430.90
2019-03-01T20:34:45.027Z,95443.39
2019-03-01T20:37:15.392Z,95445.13
2019-03-01T20:39:47.423Z,95444.41
2019-03-01T20:42:17.774Z,95449.20
2019-03-01T20:44:50.298Z,95450.59
2019-03-01T20:47:18.502Z,95446.31
2019-03-01T20:50:08.420Z,95453.91
2019-03-01T20:52:38.061Z,95454.17
2019-03-01T20:55:09.063Z,95457.78
2019-03-01T20:57:38.250Z,95465.36
2019-03-01T21:00:09.886Z,95466.00
2019-03-01T21:02:39.140Z,95470.55
2019-03-01T21:05:09.798Z,95464.55
2019-03-01T21:07:39.655Z,95473.24
2019-03-01T21:10:12.596Z,95469.53
2019-03-01T21:12:43.491Z,95470.44
2019-03-01T21:15:13.107Z,95472.75
2019-03-01T21:17:42.710Z,95467.67
2019-03-01T21:20:16.043Z,95471.39
2019-03-01T21:22:44.074Z,95473.24
2019-03-01T21:25:14.946Z,95467.13
2019-03-01T21:27:44.244Z,95471.95
2019-03-01T21:30:34.063Z,95476.09
2019-03-01T21:33:03.329Z,95480.02
2019-03-01T21:35:32.898Z,95474.48
2019-03-01T21:38:02.657Z,95486.47
2019-03-01T21:40:34.694Z,95475.26
2019-03-01T21:43:03.298Z,95487.60
2019-03-01T21:45:32.792Z,95489.23
2019-03-01T21:48:02.078Z,95489.23
2019-03-01T21:50:31.562Z,95492.09
2019-03-01T21:53:05.385Z,95494.97
2019-03-01T21:55:33.029Z,95497.22
2019-03-01T21:58:03.335Z,95489.37
2019-03-01T22:00:34.847Z,95492.89
2019-03-01T22:05:59.628Z,95496.39
2019-03-01T22:08:28.886Z,95495.75
2019-03-01T22:10:58.123Z,95494.34
2019-03-01T22:13:28.192Z,95484.86
2019-03-01T22:16:00.707Z,95494.34
2019-03-01T22:18:28.499Z,95496.09
2019-03-01T22:20:57.698Z,95503.22
2019-03-01T22:23:26.939Z,95495.77
2019-03-01T22:25:56.142Z,95501.84
2019-03-01T22:28:25.423Z,95497.97
2019-03-01T22:30:56.565Z,95499.23
2019-03-01T22:33:25.952Z,95494.08
2019-03-01T22:35:55.153Z,95498.11
2019-03-01T22:38:24.403Z,95499.97
2019-03-01T22:40:53.617Z,95500.80
2019-03-01T22:43:26.179Z,95506.40
2019-03-01T22:45:54.153Z,95506.58
2019-03-01T22:48:23.791Z,95506.81
2019-03-01T22:50:52.990Z,95512.25
2019-03-01T22:53:22.241Z,95512.40
2019-03-01T22:55:51.440Z,95513.02
2019-03-01T22:58:20.847Z,95507.20
2019-03-01T23:01:32.699Z,95513.09
2019-03-01T23:04:05.238Z,95513.84
2019-03-01T23:06:34.546Z,95509.89
